SMRA50 UAOL 191500
AAXX 19151
50953 31/45 91801 11172 21198 40188 57003 705//=
51001 19151 99214 71683 46/// /1207 10241 20207 30159 40163 91440 22200 00245 333 91209 555 11080 22085 8//08 91432=
51002 19151 99170 71577 46/// /0712 10247 20208 30145 40149 91450 22144 8//14 91443=
51003 19151 99193 71606 46/// /1010 10246 40162 56015 91450 22200 00251 10907 20805 309// 40906 70037 333 91212 555 11109 22116 31432 41013 61449 094100 089102 092087 089086 087084 088083=
51004 19151 99176 71524 46/// /0712 10243 20199 30159 40163 56014 91500 22200 00248 333 91215 555 11128 22137 8//13 91459=
51076 32/68 90000 11231 21260 40398 52008 333 92515=
51101 19151 99243 71622 46/// /1108 10226 40202 56010 91450 22200 31410 41312 61449 114081 111085 117089 122092 122093 118090=
51201 19151 99217 71581 46/// ///// 1//// 91432 22200 00235 11006 21005 302// 41103 70030=
51202 19151 99214 71577 46/// ///// 1//// 91504 22200 00242 11008 21007 302// 41103 70041=
51205 19151 99210 71564 46/// ///// 1//// 91500 22200 00243 10908 20907 302// 41103 70038=
51206 19151 99198 71550 46/// ///// 1//// 91457 22200 00242 10907 20907 336// 41203 70037=
51208 19151 99223 71596 46/// ///// 1//// 91452 22200 00237 11008 21007 305// 41103 70038=
51209 19151 99143 51705 46/// ///// 1//// 91500 22200 00294 11406 21005 314// 41404 70031=
51210 19151 99215 71578 46/// ///// 1//// 91500 22200 00244 11007 21007 304// 41103 70037=
51243 31/56 92501 11203 21224 40395 52003 710//=
51288 32/80 92001 11151 21223 38350 52005=
51463 31/10 91802 11134 21158 40358 57001 710// 333 92528=
51573 32/59 93602 11053 21171 40328 52005=
51709 32/59 93402 11037 21105 40344 52013=
52200 19151 99134 11448 46/// ///// 1//// 91500 22200 00287 10804 20804 306// 41101 70020=
52201 19151 99071 11714 46/// ///// 1//// 91500 22200 00289 11304 21003 300// 41302 70019=
52202 19151 99137 11448 46/// ///// 1//// 91500 22200 00285 10904 20903 306// 41101 70018=
52533 32/63 92202 11078 21197 40305 52002=
52652 32/63 92002 11086 21234 40319 57003=
52866 32/62 92203 11025 21169 37695 52015=
52983 31/31 92702 11049 21136 38129 52009 705//=
53463 32/80 93403 11113 21206 40301 57002=
53513 32/80 92505 11063 21196 40269 57005=
53588 32/80 92507 11116 21219 37766 52002=
53772 32/59 90000 11025 21177 40268 52015=
53915 32/70 92901 11017 21109 40268 52004=
54218 32/80 92902 11091 21194 40278 52016=
54337 32/80 93604 11007 21193 40243 52036=
54342 31/55 93403 11035 21140 40223 52023 705//=
54401 32/80 93404 11044 21176 40267 52005=
54471 31/13 92901 11036 21051 40230 52022 710//=
54497 31/38 90201 11051 21062 40219 52007 710//=
54511 31928 92501 11021 21116 40242 52015 705//=
54823 31/55 91102 10028 21027 40240 52005 705//=
56080 32/60 92001 11043 21192 37137 52007=
56096 32/74 90401 10059 21073 40222 52022=
56778 32/80 92002 10106 20047 38111 52012=
57083 31/41 90000 10023 21032 40232 52010 705//=
57265 31/17 91101 10044 20018 40235 52005 710//=
57461 31/40 92901 10056 20006 40243 52005 710//=
57494 31/02 90000 10036 20030 40247 52008 745//=
57516 31/19 93201 10093 20071 40226 52012 710//=
57687 31/40 93401 10058 20021 40248 52007 710//=
57816 31/14 93602 10055 20052 40217 52004 710//=
58040 31/10 92202 10041 20013 40243 52008 710//=
58102 31/13 91801 10030 20018 40246 52021 710//=
58150 31/10 90000 10006 20002 40248 52009 710//=
58221 31/09 90201 10034 20031 40246 52013 710//=
58238 31/09 90401 10060 20043 40242 52002 710//=
58251 31/04 90401 10011 20007 40247 52008 745//=
58362 31732 90701 10076 20036 40241 57004 710//=
58457 31319 92001 10080 20066 40240 52001 710//=
58606 31/34 90701 10091 20051 40235 52004 710//=
58752 31/55 90703 10124 20098 40232 52003 710//=
58847 31/46 93201 10142 20114 40216 52002 710//=
59117 32/60 92701 10189 20163 40177 52007=
59134 32/57 90702 10155 20119 40197 52006=
59287 31757 93601 10185 20163 40176 52008 710//=
59316 32/68 90703 10171 20126 40186 52003=
59431 31/40 90704 10168 20141 40169 52012 710//=
59644 31/55 91402 10197 20175 40170 52011 710//=
59758 41/43 90703 10189 20184 40174 52005 710//=



SMUS50 KWBC 191500
AAXX 19154